sensor_id;sensor_type;location;lat;lon;timestamp;noise_LAeq;noise_LA_min;noise_LA_max;noise_LA01;noise_LA95
71230;Laerm;57282;52.514;13.458;2022-07-23T00:00:13;61.23;41.22;76.37;;
71230;Laerm;57282;52.514;13.458;2022-07-23T00:02:40;52.18;42.15;66.80;;
71230;Laerm;57282;52.514;13.458;2022-07-23T00:05:08;61.42;43.08;81.72;;
71230;Laerm;57282;52.514;13.458;2022-07-23T00:07:35;63.49;42.43;77.43;;
71230;Laerm;57282;52.514;13.458;2022-07-23T00:10:05;59.77;41.75;73.08;;
71230;Laerm;57282;52.514;13.458;2022-07-23T00:12:32;62.31;42.91;77.07;;
71230;Laerm;57282;52.514;13.458;2022-07-23T00:14:59;60.48;43.93;79.66;;
71230;Laerm;57282;52.514;13.458;2022-07-23T00:17:26;59.41;43.74;76.59;;
71230;Laerm;57282;52.514;13.458;2022-07-23T00:19:52;60.91;43.18;77.22;;
71230;Laerm;57282;52.514;13.458;2022-07-23T00:22:19;57.46;43.30;78.08;;
71230;Laerm;57282;52.514;13.458;2022-07-23T00:24:46;58.63;42.08;73.69;;
71230;Laerm;57282;52.514;13.458;2022-07-23T00:27:14;53.35;40.24;68.23;;
71230;Laerm;57282;52.514;13.458;2022-07-23T00:29:41;62.65;41.70;77.55;;
71230;Laerm;57282;52.514;13.458;2022-07-23T00:32:10;58.65;40.46;75.54;;
71230;Laerm;57282;52.514;13.458;2022-07-23T00:34:37;61.55;41.90;88.32;;
71230;Laerm;57282;52.514;13.458;2022-07-23T00:37:04;60.44;41.97;74.06;;
71230;Laerm;57282;52.514;13.458;2022-07-23T00:39:31;63.70;43.20;78.42;;
71230;Laerm;57282;52.514;13.458;2022-07-23T00:41:57;58.37;42.26;76.62;;
71230;Laerm;57282;52.514;13.458;2022-07-23T00:44:27;62.51;40.07;76.85;;
71230;Laerm;57282;52.514;13.458;2022-07-23T00:46:57;59.30;39.83;77.10;;
71230;Laerm;57282;52.514;13.458;2022-07-23T00:49:27;60.41;41.26;76.93;;
71230;Laerm;57282;52.514;13.458;2022-07-23T00:51:56;58.64;36.75;76.39;;
71230;Laerm;57282;52.514;13.458;2022-07-23T00:54:25;59.74;38.70;74.97;;
71230;Laerm;57282;52.514;13.458;2022-07-23T00:56:52;58.72;38.26;79.40;;
71230;Laerm;57282;52.514;13.458;2022-07-23T00:59:20;49.41;36.80;67.36;;
71230;Laerm;57282;52.514;13.458;2022-07-23T01:01:48;59.29;37.77;73.61;;
71230;Laerm;57282;52.514;13.458;2022-07-23T01:04:16;52.87;37.55;68.30;;
71230;Laerm;57282;52.514;13.458;2022-07-23T01:06:44;62.25;38.20;78.95;;
71230;Laerm;57282;52.514;13.458;2022-07-23T01:09:11;56.70;36.55;74.70;;
71230;Laerm;57282;52.514;13.458;2022-07-23T01:11:38;55.77;37.37;73.88;;
71230;Laerm;57282;52.514;13.458;2022-07-23T01:14:10;45.90;34.69;64.65;;
71230;Laerm;57282;52.514;13.458;2022-07-23T01:16:38;59.17;34.20;77.10;;
71230;Laerm;57282;52.514;13.458;2022-07-23T01:19:06;61.34;34.14;78.14;;
71230;Laerm;57282;52.514;13.458;2022-07-23T01:21:36;61.68;39.16;77.40;;
71230;Laerm;57282;52.514;13.458;2022-07-23T01:24:07;53.54;37.92;70.32;;
71230;Laerm;57282;52.514;13.458;2022-07-23T01:26:34;57.55;34.33;72.02;;
71230;Laerm;57282;52.514;13.458;2022-07-23T01:29:02;59.55;35.84;77.21;;
71230;Laerm;57282;52.514;13.458;2022-07-23T01:31:29;53.32;37.63;69.21;;
71230;Laerm;57282;52.514;13.458;2022-07-23T01:33:55;61.03;36.13;77.94;;
71230;Laerm;57282;52.514;13.458;2022-07-23T01:36:22;61.34;36.03;78.27;;
71230;Laerm;57282;52.514;13.458;2022-07-23T01:38:50;57.06;35.47;73.96;;
71230;Laerm;57282;52.514;13.458;2022-07-23T01:41:18;59.24;34.79;75.37;;
71230;Laerm;57282;52.514;13.458;2022-07-23T01:43:45;63.57;35.11;81.24;;
71230;Laerm;57282;52.514;13.458;2022-07-23T01:46:11;61.05;37.04;78.39;;
71230;Laerm;57282;52.514;13.458;2022-07-23T01:48:39;60.94;37.27;78.13;;
71230;Laerm;57282;52.514;13.458;2022-07-23T01:51:05;57.40;34.37;73.76;;
71230;Laerm;57282;52.514;13.458;2022-07-23T01:53:32;43.68;34.06;61.45;;
71230;Laerm;57282;52.514;13.458;2022-07-23T01:55:59;60.54;33.74;77.82;;
71230;Laerm;57282;52.514;13.458;2022-07-23T01:58:28;53.68;33.29;67.90;;
71230;Laerm;57282;52.514;13.458;2022-07-23T02:00:55;60.96;34.52;76.62;;
71230;Laerm;57282;52.514;13.458;2022-07-23T02:03:22;57.13;37.14;76.87;;
71230;Laerm;57282;52.514;13.458;2022-07-23T02:05:49;52.55;32.81;69.77;;
71230;Laerm;57282;52.514;13.458;2022-07-23T02:08:17;58.83;32.41;74.52;;
71230;Laerm;57282;52.514;13.458;2022-07-23T02:10:44;59.22;35.60;74.41;;
71230;Laerm;57282;52.514;13.458;2022-07-23T02:13:11;56.06;34.64;74.79;;
71230;Laerm;57282;52.514;13.458;2022-07-23T02:15:39;55.81;33.36;74.29;;
71230;Laerm;57282;52.514;13.458;2022-07-23T02:18:05;57.69;35.35;71.66;;
71230;Laerm;57282;52.514;13.458;2022-07-23T02:20:33;52.38;33.03;70.48;;
71230;Laerm;57282;52.514;13.458;2022-07-23T02:23:00;45.62;33.77;61.65;;
71230;Laerm;57282;52.514;13.458;2022-07-23T02:25:27;52.72;33.83;70.72;;
71230;Laerm;57282;52.514;13.458;2022-07-23T02:27:53;60.63;32.96;74.22;;
71230;Laerm;57282;52.514;13.458;2022-07-23T02:30:20;55.55;32.31;73.51;;
71230;Laerm;57282;52.514;13.458;2022-07-23T02:32:48;59.11;31.93;74.50;;
71230;Laerm;57282;52.514;13.458;2022-07-23T02:35:14;52.76;33.22;71.02;;
71230;Laerm;57282;52.514;13.458;2022-07-23T02:37:41;54.53;32.46;74.07;;
71230;Laerm;57282;52.514;13.458;2022-07-23T02:40:09;61.60;33.61;79.05;;
71230;Laerm;57282;52.514;13.458;2022-07-23T02:42:35;54.52;32.77;72.15;;
71230;Laerm;57282;52.514;13.458;2022-07-23T02:45:02;62.82;35.39;78.66;;
71230;Laerm;57282;52.514;13.458;2022-07-23T02:47:29;43.11;32.09;62.15;;
71230;Laerm;57282;52.514;13.458;2022-07-23T02:49:58;56.58;33.76;75.53;;
71230;Laerm;57282;52.514;13.458;2022-07-23T02:52:25;61.74;35.86;77.84;;
71230;Laerm;57282;52.514;13.458;2022-07-23T02:54:52;67.23;37.56;83.22;;
71230;Laerm;57282;52.514;13.458;2022-07-23T02:57:18;56.68;33.37;74.59;;
71230;Laerm;57282;52.514;13.458;2022-07-23T02:59:45;39.91;33.68;49.52;;
71230;Laerm;57282;52.514;13.458;2022-07-23T03:02:11;60.36;32.15;80.65;;
71230;Laerm;57282;52.514;13.458;2022-07-23T03:04:38;52.52;34.13;70.58;;
71230;Laerm;57282;52.514;13.458;2022-07-23T03:07:09;62.15;32.77;76.83;;
71230;Laerm;57282;52.514;13.458;2022-07-23T03:09:35;40.94;32.87;55.08;;
71230;Laerm;57282;52.514;13.458;2022-07-23T03:12:02;56.46;34.37;76.95;;
71230;Laerm;57282;52.514;13.458;2022-07-23T03:14:29;57.24;34.93;72.66;;
71230;Laerm;57282;52.514;13.458;2022-07-23T03:16:56;55.87;36.20;73.87;;
71230;Laerm;57282;52.514;13.458;2022-07-23T03:19:22;61.06;35.00;79.76;;
71230;Laerm;57282;52.514;13.458;2022-07-23T03:21:49;45.08;36.70;62.09;;
71230;Laerm;57282;52.514;13.458;2022-07-23T03:24:17;52.69;35.98;70.52;;
71230;Laerm;57282;52.514;13.458;2022-07-23T03:26:49;58.48;38.65;75.60;;
71230;Laerm;57282;52.514;13.458;2022-07-23T03:29:15;59.06;36.74;77.25;;
71230;Laerm;57282;52.514;13.458;2022-07-23T03:31:42;60.43;36.05;75.15;;
71230;Laerm;57282;52.514;13.458;2022-07-23T03:34:09;62.34;36.53;78.55;;
71230;Laerm;57282;52.514;13.458;2022-07-23T03:36:35;61.77;36.44;75.20;;
71230;Laerm;57282;52.514;13.458;2022-07-23T03:39:02;55.10;35.30;73.81;;
71230;Laerm;57282;52.514;13.458;2022-07-23T03:41:30;58.50;34.16;75.33;;
71230;Laerm;57282;52.514;13.458;2022-07-23T03:43:57;54.15;33.77;72.47;;
71230;Laerm;57282;52.514;13.458;2022-07-23T03:46:24;58.70;34.10;75.74;;
71230;Laerm;57282;52.514;13.458;2022-07-23T03:48:50;54.71;37.87;73.28;;
71230;Laerm;57282;52.514;13.458;2022-07-23T03:51:17;57.44;35.73;73.13;;
71230;Laerm;57282;52.514;13.458;2022-07-23T03:53:43;52.10;35.34;70.63;;
71230;Laerm;57282;52.514;13.458;2022-07-23T03:56:10;46.29;34.15;65.60;;
71230;Laerm;57282;52.514;13.458;2022-07-23T03:58:38;60.71;35.60;76.89;;
71230;Laerm;57282;52.514;13.458;2022-07-23T04:01:05;59.32;34.09;74.60;;
71230;Laerm;57282;52.514;13.458;2022-07-23T04:03:31;48.00;34.43;64.25;;
71230;Laerm;57282;52.514;13.458;2022-07-23T04:05:58;60.08;35.09;77.82;;
71230;Laerm;57282;52.514;13.458;2022-07-23T04:08:24;60.21;32.68;80.07;;
71230;Laerm;57282;52.514;13.458;2022-07-23T04:10:51;56.76;35.59;73.15;;
71230;Laerm;57282;52.514;13.458;2022-07-23T04:13:18;56.93;34.17;74.97;;
71230;Laerm;57282;52.514;13.458;2022-07-23T04:15:46;59.78;34.25;76.43;;
71230;Laerm;57282;52.514;13.458;2022-07-23T04:18:13;57.18;34.91;76.25;;
71230;Laerm;57282;52.514;13.458;2022-07-23T04:20:42;52.29;35.28;75.97;;
71230;Laerm;57282;52.514;13.458;2022-07-23T04:23:09;61.19;38.74;76.17;;
71230;Laerm;57282;52.514;13.458;2022-07-23T04:25:36;60.38;36.48;80.59;;
71230;Laerm;57282;52.514;13.458;2022-07-23T04:28:03;52.48;34.00;71.54;;
71230;Laerm;57282;52.514;13.458;2022-07-23T04:30:29;56.14;34.59;74.00;;
71230;Laerm;57282;52.514;13.458;2022-07-23T04:32:57;64.36;34.17;85.96;;
71230;Laerm;57282;52.514;13.458;2022-07-23T04:35:24;58.42;34.09;76.31;;
71230;Laerm;57282;52.514;13.458;2022-07-23T04:37:51;61.71;35.24;77.04;;
71230;Laerm;57282;52.514;13.458;2022-07-23T04:40:18;56.64;37.10;73.89;;
71230;Laerm;57282;52.514;13.458;2022-07-23T04:42:44;68.52;34.83;92.82;;
71230;Laerm;57282;52.514;13.458;2022-07-23T04:45:11;71.02;56.20;102.98;;
71230;Laerm;57282;52.514;13.458;2022-07-23T04:47:37;61.23;46.82;89.22;;
71230;Laerm;57282;52.514;13.458;2022-07-23T04:50:06;60.99;46.82;82.37;;
71230;Laerm;57282;52.514;13.458;2022-07-23T04:52:33;64.19;50.58;96.68;;
71230;Laerm;57282;52.514;13.458;2022-07-23T04:54:59;54.32;51.11;71.67;;
71230;Laerm;57282;52.514;13.458;2022-07-23T04:57:26;53.70;49.26;69.97;;
71230;Laerm;57282;52.514;13.458;2022-07-23T04:59:52;58.24;53.84;88.55;;
71230;Laerm;57282;52.514;13.458;2022-07-23T05:02:19;59.13;48.69;72.08;;
71230;Laerm;57282;52.514;13.458;2022-07-23T05:04:46;61.51;47.70;75.68;;
71230;Laerm;57282;52.514;13.458;2022-07-23T05:07:14;51.02;47.02;62.00;;
71230;Laerm;57282;52.514;13.458;2022-07-23T05:09:40;54.99;46.80;70.84;;
71230;Laerm;57282;52.514;13.458;2022-07-23T05:12:08;57.45;43.85;77.54;;
71230;Laerm;57282;52.514;13.458;2022-07-23T05:14:34;62.62;44.11;77.32;;
71230;Laerm;57282;52.514;13.458;2022-07-23T05:17:10;64.47;46.73;80.63;;
71230;Laerm;57282;52.514;13.458;2022-07-23T05:19:37;60.49;45.73;75.67;;
71230;Laerm;57282;52.514;13.458;2022-07-23T05:22:03;57.11;43.96;74.74;;
71230;Laerm;57282;52.514;13.458;2022-07-23T05:24:31;51.16;45.68;64.12;;
71230;Laerm;57282;52.514;13.458;2022-07-23T05:26:58;59.03;47.19;82.11;;
71230;Laerm;57282;52.514;13.458;2022-07-23T05:29:24;60.81;45.38;75.81;;
71230;Laerm;57282;52.514;13.458;2022-07-23T05:31:51;61.16;44.40;78.75;;
71230;Laerm;57282;52.514;13.458;2022-07-23T05:34:18;60.28;41.10;74.34;;
71230;Laerm;57282;52.514;13.458;2022-07-23T05:36:44;47.15;42.82;57.74;;
71230;Laerm;57282;52.514;13.458;2022-07-23T05:39:11;58.04;41.60;77.53;;
71230;Laerm;57282;52.514;13.458;2022-07-23T05:41:39;54.88;39.79;68.38;;
71230;Laerm;57282;52.514;13.458;2022-07-23T05:44:05;59.74;39.10;79.87;;
71230;Laerm;57282;52.514;13.458;2022-07-23T05:46:32;62.12;39.96;79.37;;
71230;Laerm;57282;52.514;13.458;2022-07-23T05:48:59;58.62;38.48;75.78;;
71230;Laerm;57282;52.514;13.458;2022-07-23T05:51:25;54.84;37.66;73.03;;
71230;Laerm;57282;52.514;13.458;2022-07-23T05:53:52;59.62;37.87;75.51;;
71230;Laerm;57282;52.514;13.458;2022-07-23T05:56:19;61.34;35.60;82.21;;
71230;Laerm;57282;52.514;13.458;2022-07-23T05:58:47;55.23;37.04;73.06;;
71230;Laerm;57282;52.514;13.458;2022-07-23T06:01:14;43.35;36.37;59.31;;
71230;Laerm;57282;52.514;13.458;2022-07-23T06:03:40;52.54;35.75;70.18;;
71230;Laerm;57282;52.514;13.458;2022-07-23T06:06:07;55.83;40.91;74.05;;
71230;Laerm;57282;52.514;13.458;2022-07-23T06:08:34;61.57;41.21;85.38;;
71230;Laerm;57282;52.514;13.458;2022-07-23T06:11:00;59.44;40.64;74.36;;
71230;Laerm;57282;52.514;13.458;2022-07-23T06:13:28;60.51;49.06;88.72;;
71230;Laerm;57282;52.514;13.458;2022-07-23T06:15:56;59.15;51.57;88.70;;
71230;Laerm;57282;52.514;13.458;2022-07-23T06:18:22;57.78;50.08;74.84;;
71230;Laerm;57282;52.514;13.458;2022-07-23T06:20:49;64.63;51.87;89.03;;
71230;Laerm;57282;52.514;13.458;2022-07-23T06:23:15;60.40;52.74;76.54;;
71230;Laerm;57282;52.514;13.458;2022-07-23T06:25:42;64.95;52.82;78.58;;
71230;Laerm;57282;52.514;13.458;2022-07-23T06:28:09;62.33;49.45;77.84;;
71230;Laerm;57282;52.514;13.458;2022-07-23T06:30:35;62.12;48.12;77.52;;
71230;Laerm;57282;52.514;13.458;2022-07-23T06:33:03;61.41;47.74;76.24;;
71230;Laerm;57282;52.514;13.458;2022-07-23T06:35:30;64.02;46.44;78.84;;
71230;Laerm;57282;52.514;13.458;2022-07-23T06:37:56;63.42;48.05;74.80;;
71230;Laerm;57282;52.514;13.458;2022-07-23T06:40:23;65.63;48.85;79.20;;
71230;Laerm;57282;52.514;13.458;2022-07-23T06:42:49;60.26;49.49;82.49;;
71230;Laerm;57282;52.514;13.458;2022-07-23T06:45:16;63.34;55.74;80.07;;
71230;Laerm;57282;52.514;13.458;2022-07-23T06:47:43;61.25;55.13;73.86;;
71230;Laerm;57282;52.514;13.458;2022-07-23T06:50:11;60.27;51.07;75.25;;
71230;Laerm;57282;52.514;13.458;2022-07-23T06:52:38;57.19;49.66;72.79;;
71230;Laerm;57282;52.514;13.458;2022-07-23T06:55:06;60.03;48.47;71.50;;
71230;Laerm;57282;52.514;13.458;2022-07-23T06:57:32;61.95;44.89;73.50;;
71230;Laerm;57282;52.514;13.458;2022-07-23T06:59:59;64.74;46.78;79.82;;
71230;Laerm;57282;52.514;13.458;2022-07-23T07:02:26;59.52;42.78;75.40;;
71230;Laerm;57282;52.514;13.458;2022-07-23T07:04:52;58.82;42.15;77.56;;
71230;Laerm;57282;52.514;13.458;2022-07-23T07:07:20;58.33;41.19;74.15;;
71230;Laerm;57282;52.514;13.458;2022-07-23T07:09:47;58.03;41.77;75.48;;
71230;Laerm;57282;52.514;13.458;2022-07-23T07:12:14;60.57;45.07;74.61;;
71230;Laerm;57282;52.514;13.458;2022-07-23T07:14:40;61.96;40.41;79.01;;
71230;Laerm;57282;52.514;13.458;2022-07-23T07:17:07;60.30;41.24;75.07;;
71230;Laerm;57282;52.514;13.458;2022-07-23T07:19:33;62.21;47.20;77.55;;
71230;Laerm;57282;52.514;13.458;2022-07-23T07:22:00;57.88;43.73;72.24;;
71230;Laerm;57282;52.514;13.458;2022-07-23T07:24:28;58.45;41.85;75.06;;
71230;Laerm;57282;52.514;13.458;2022-07-23T07:26:55;58.67;38.51;71.30;;
71230;Laerm;57282;52.514;13.458;2022-07-23T07:29:21;57.82;42.77;72.58;;
71230;Laerm;57282;52.514;13.458;2022-07-23T07:31:48;56.43;41.49;71.69;;
71230;Laerm;57282;52.514;13.458;2022-07-23T07:34:14;62.38;45.67;76.05;;
71230;Laerm;57282;52.514;13.458;2022-07-23T07:36:41;65.01;46.36;77.85;;
71230;Laerm;57282;52.514;13.458;2022-07-23T07:39:09;65.41;45.32;79.00;;
71230;Laerm;57282;52.514;13.458;2022-07-23T07:41:38;61.07;44.45;76.52;;
71230;Laerm;57282;52.514;13.458;2022-07-23T07:44:04;62.83;46.84;81.77;;
71230;Laerm;57282;52.514;13.458;2022-07-23T07:46:31;59.81;43.66;75.59;;
71230;Laerm;57282;52.514;13.458;2022-07-23T07:48:58;62.26;42.88;77.17;;
71230;Laerm;57282;52.514;13.458;2022-07-23T07:51:26;60.73;44.67;73.70;;
71230;Laerm;57282;52.514;13.458;2022-07-23T07:53:54;64.06;43.86;77.58;;
71230;Laerm;57282;52.514;13.458;2022-07-23T07:56:20;63.62;43.06;76.02;;
71230;Laerm;57282;52.514;13.458;2022-07-23T07:58:48;63.84;42.02;79.59;;
71230;Laerm;57282;52.514;13.458;2022-07-23T08:01:15;63.29;42.79;75.41;;
71230;Laerm;57282;52.514;13.458;2022-07-23T08:03:42;61.29;39.70;76.30;;
71230;Laerm;57282;52.514;13.458;2022-07-23T08:06:08;65.35;42.68;79.43;;
71230;Laerm;57282;52.514;13.458;2022-07-23T08:08:35;60.68;40.92;77.34;;
71230;Laerm;57282;52.514;13.458;2022-07-23T08:11:02;62.93;40.15;80.62;;
71230;Laerm;57282;52.514;13.458;2022-07-23T08:13:29;60.92;39.52;79.08;;
71230;Laerm;57282;52.514;13.458;2022-07-23T08:15:57;61.36;40.97;75.26;;
71230;Laerm;57282;52.514;13.458;2022-07-23T08:18:23;59.33;42.42;74.67;;
71230;Laerm;57282;52.514;13.458;2022-07-23T08:20:50;66.03;43.93;80.85;;
71230;Laerm;57282;52.514;13.458;2022-07-23T08:23:16;60.65;42.32;77.41;;
71230;Laerm;57282;52.514;13.458;2022-07-23T08:25:45;62.75;43.54;79.29;;
71230;Laerm;57282;52.514;13.458;2022-07-23T08:28:14;62.34;40.71;80.23;;
71230;Laerm;57282;52.514;13.458;2022-07-23T08:30:45;62.89;42.88;79.01;;
71230;Laerm;57282;52.514;13.458;2022-07-23T08:33:15;64.56;45.50;91.84;;
71230;Laerm;57282;52.514;13.458;2022-07-23T08:35:46;60.04;42.21;74.00;;
71230;Laerm;57282;52.514;13.458;2022-07-23T08:38:17;58.49;42.23;71.94;;
71230;Laerm;57282;52.514;13.458;2022-07-23T08:40:47;62.45;43.06;75.30;;
71230;Laerm;57282;52.514;13.458;2022-07-23T08:43:16;61.43;42.21;75.91;;
71230;Laerm;57282;52.514;13.458;2022-07-23T08:45:46;63.32;44.52;77.75;;
71230;Laerm;57282;52.514;13.458;2022-07-23T08:48:15;61.18;43.17;78.93;;
71230;Laerm;57282;52.514;13.458;2022-07-23T08:50:44;63.38;47.11;77.70;;
71230;Laerm;57282;52.514;13.458;2022-07-23T08:53:12;64.52;45.82;77.35;;
71230;Laerm;57282;52.514;13.458;2022-07-23T08:55:39;66.17;43.66;79.81;;
71230;Laerm;57282;52.514;13.458;2022-07-23T08:58:06;61.76;44.31;75.14;;
71230;Laerm;57282;52.514;13.458;2022-07-23T09:00:32;62.27;45.27;79.80;;
71230;Laerm;57282;52.514;13.458;2022-07-23T09:02:59;64.54;43.62;87.00;;
71230;Laerm;57282;52.514;13.458;2022-07-23T09:05:28;63.54;42.70;75.63;;
71230;Laerm;57282;52.514;13.458;2022-07-23T09:08:11;63.75;42.91;77.72;;
71230;Laerm;57282;52.514;13.458;2022-07-23T09:10:51;60.65;41.12;76.07;;
71230;Laerm;57282;52.514;13.458;2022-07-23T09:13:34;64.29;44.97;78.14;;
71230;Laerm;57282;52.514;13.458;2022-07-23T09:16:06;64.40;43.60;79.48;;
71230;Laerm;57282;52.514;13.458;2022-07-23T09:18:40;65.42;43.82;82.95;;
71230;Laerm;57282;52.514;13.458;2022-07-23T09:21:17;65.22;43.12;80.08;;
71230;Laerm;57282;52.514;13.458;2022-07-23T09:23:48;65.74;40.47;84.54;;
71230;Laerm;57282;52.514;13.458;2022-07-23T09:26:37;60.79;40.20;83.09;;
71230;Laerm;57282;52.514;13.458;2022-07-23T09:29:08;67.10;43.27;81.21;;
71230;Laerm;57282;52.514;13.458;2022-07-23T09:31:45;65.18;43.35;79.93;;
71230;Laerm;57282;52.514;13.458;2022-07-23T09:34:16;64.89;42.97;77.37;;
71230;Laerm;57282;52.514;13.458;2022-07-23T09:36:45;63.44;44.72;74.99;;
71230;Laerm;57282;52.514;13.458;2022-07-23T09:39:15;63.24;49.04;79.86;;
71230;Laerm;57282;52.514;13.458;2022-07-23T09:41:45;66.39;44.47;82.76;;
71230;Laerm;57282;52.514;13.458;2022-07-23T09:44:16;71.07;53.50;90.35;;
71230;Laerm;57282;52.514;13.458;2022-07-23T09:46:44;70.80;56.01;84.31;;
71230;Laerm;57282;52.514;13.458;2022-07-23T09:49:18;69.22;45.13;83.32;;
71230;Laerm;57282;52.514;13.458;2022-07-23T09:51:55;72.92;56.42;91.62;;
71230;Laerm;57282;52.514;13.458;2022-07-23T09:54:32;72.85;44.74;94.19;;
71230;Laerm;57282;52.514;13.458;2022-07-23T09:57:02;71.37;51.13;81.22;;
71230;Laerm;57282;52.514;13.458;2022-07-23T09:59:33;72.99;54.37;87.84;;
71230;Laerm;57282;52.514;13.458;2022-07-23T10:02:01;72.09;51.42;83.84;;
71230;Laerm;57282;52.514;13.458;2022-07-23T10:04:31;71.69;49.42;80.58;;
71230;Laerm;57282;52.514;13.458;2022-07-23T10:07:03;71.03;44.52;80.84;;
71230;Laerm;57282;52.514;13.458;2022-07-23T10:09:32;70.81;48.21;87.39;;
71230;Laerm;57282;52.514;13.458;2022-07-23T10:12:03;70.11;50.70;80.23;;
71230;Laerm;57282;52.514;13.458;2022-07-23T10:14:44;71.98;57.83;82.72;;
71230;Laerm;57282;52.514;13.458;2022-07-23T10:17:11;72.62;54.79;82.97;;
71230;Laerm;57282;52.514;13.458;2022-07-23T10:19:38;74.29;50.43;90.42;;
71230;Laerm;57282;52.514;13.458;2022-07-23T10:22:10;74.39;54.92;90.41;;
71230;Laerm;57282;52.514;13.458;2022-07-23T10:24:52;73.61;56.36;88.19;;
71230;Laerm;57282;52.514;13.458;2022-07-23T10:27:55;72.70;50.01;84.43;;
71230;Laerm;57282;52.514;13.458;2022-07-23T10:30:36;74.46;57.71;92.70;;
71230;Laerm;57282;52.514;13.458;2022-07-23T10:33:23;73.65;50.34;87.54;;
71230;Laerm;57282;52.514;13.458;2022-07-23T10:36:02;73.72;47.25;96.45;;
71230;Laerm;57282;52.514;13.458;2022-07-23T10:38:37;72.56;57.05;85.96;;
71230;Laerm;57282;52.514;13.458;2022-07-23T10:41:09;71.38;55.48;86.99;;
71230;Laerm;57282;52.514;13.458;2022-07-23T10:43:36;77.08;50.31;95.83;;
71230;Laerm;57282;52.514;13.458;2022-07-23T10:46:21;73.45;53.50;92.42;;
71230;Laerm;57282;52.514;13.458;2022-07-23T10:49:21;73.78;50.56;96.02;;
71230;Laerm;57282;52.514;13.458;2022-07-23T10:52:20;77.85;45.23;95.88;;
71230;Laerm;57282;52.514;13.458;2022-07-23T10:54:50;79.55;56.56;96.69;;
71230;Laerm;57282;52.514;13.458;2022-07-23T10:57:19;81.02;49.65;99.56;;
71230;Laerm;57282;52.514;13.458;2022-07-23T11:00:22;76.99;58.81;90.75;;
71230;Laerm;57282;52.514;13.458;2022-07-23T11:02:51;77.47;59.43;86.50;;
71230;Laerm;57282;52.514;13.458;2022-07-23T11:05:20;76.97;49.09;87.66;;
71230;Laerm;57282;52.514;13.458;2022-07-23T11:08:23;75.80;57.35;85.29;;
71230;Laerm;57282;52.514;13.458;2022-07-23T11:10:55;73.65;44.59;87.86;;
71230;Laerm;57282;52.514;13.458;2022-07-23T11:13:41;75.71;60.41;84.25;;
71230;Laerm;57282;52.514;13.458;2022-07-23T11:16:21;75.25;57.77;83.65;;
71230;Laerm;57282;52.514;13.458;2022-07-23T11:18:59;74.88;49.23;87.01;;
71230;Laerm;57282;52.514;13.458;2022-07-23T11:21:47;79.29;59.87;90.20;;
71230;Laerm;57282;52.514;13.458;2022-07-23T11:24:20;80.30;65.03;90.33;;
71230;Laerm;57282;52.514;13.458;2022-07-23T11:27:01;80.19;50.03;90.19;;
71230;Laerm;57282;52.514;13.458;2022-07-23T11:29:48;76.85;49.43;86.00;;
71230;Laerm;57282;52.514;13.458;2022-07-23T11:32:39;63.34;45.61;80.36;;
71230;Laerm;57282;52.514;13.458;2022-07-23T11:35:23;60.71;45.87;76.04;;
71230;Laerm;57282;52.514;13.458;2022-07-23T11:37:52;66.53;44.90;85.16;;
71230;Laerm;57282;52.514;13.458;2022-07-23T11:40:25;65.15;48.01;80.31;;
71230;Laerm;57282;52.514;13.458;2022-07-23T11:42:58;61.53;44.48;79.28;;
71230;Laerm;57282;52.514;13.458;2022-07-23T11:45:32;60.71;46.14;73.92;;
71230;Laerm;57282;52.514;13.458;2022-07-23T11:48:00;61.47;47.13;74.99;;
71230;Laerm;57282;52.514;13.458;2022-07-23T11:50:27;63.90;50.38;79.37;;
71230;Laerm;57282;52.514;13.458;2022-07-23T11:52:54;63.74;49.50;79.85;;
71230;Laerm;57282;52.514;13.458;2022-07-23T11:55:22;61.66;43.67;75.40;;
71230;Laerm;57282;52.514;13.458;2022-07-23T11:57:52;61.22;44.43;74.75;;
71230;Laerm;57282;52.514;13.458;2022-07-23T12:00:23;62.33;45.23;76.03;;
71230;Laerm;57282;52.514;13.458;2022-07-23T12:02:52;63.05;46.34;76.06;;
71230;Laerm;57282;52.514;13.458;2022-07-23T12:05:22;63.11;43.72;79.02;;
71230;Laerm;57282;52.514;13.458;2022-07-23T12:07:50;60.07;44.43;75.63;;
71230;Laerm;57282;52.514;13.458;2022-07-23T12:10:22;61.02;44.34;75.44;;
71230;Laerm;57282;52.514;13.458;2022-07-23T12:12:51;65.09;46.18;79.47;;
71230;Laerm;57282;52.514;13.458;2022-07-23T12:15:23;62.15;43.14;75.45;;
71230;Laerm;57282;52.514;13.458;2022-07-23T12:17:52;63.88;46.96;76.32;;
71230;Laerm;57282;52.514;13.458;2022-07-23T12:20:22;64.53;45.61;77.10;;
71230;Laerm;57282;52.514;13.458;2022-07-23T12:22:52;61.48;44.30;73.94;;
71230;Laerm;57282;52.514;13.458;2022-07-23T12:25:22;62.67;44.97;76.06;;
71230;Laerm;57282;52.514;13.458;2022-07-23T12:28:01;65.01;49.65;78.40;;
71230;Laerm;57282;52.514;13.458;2022-07-23T12:30:33;59.31;44.67;73.93;;
71230;Laerm;57282;52.514;13.458;2022-07-23T12:33:01;60.24;46.41;71.78;;
71230;Laerm;57282;52.514;13.458;2022-07-23T12:35:35;60.09;44.48;73.82;;
71230;Laerm;57282;52.514;13.458;2022-07-23T12:38:05;61.87;48.12;73.85;;
71230;Laerm;57282;52.514;13.458;2022-07-23T12:40:35;60.71;46.82;74.64;;
71230;Laerm;57282;52.514;13.458;2022-07-23T12:43:06;62.35;47.06;79.59;;
71230;Laerm;57282;52.514;13.458;2022-07-23T12:45:47;62.90;48.64;75.47;;
71230;Laerm;57282;52.514;13.458;2022-07-23T12:48:23;62.26;48.23;77.13;;
71230;Laerm;57282;52.514;13.458;2022-07-23T12:50:59;63.86;51.22;75.96;;
71230;Laerm;57282;52.514;13.458;2022-07-23T12:53:29;62.34;44.94;79.49;;
71230;Laerm;57282;52.514;13.458;2022-07-23T12:56:06;62.61;45.03;81.84;;
71230;Laerm;57282;52.514;13.458;2022-07-23T12:58:43;64.20;45.26;80.37;;
71230;Laerm;57282;52.514;13.458;2022-07-23T13:01:23;63.19;48.36;79.49;;
71230;Laerm;57282;52.514;13.458;2022-07-23T13:04:00;65.42;46.55;80.04;;
71230;Laerm;57282;52.514;13.458;2022-07-23T13:06:29;62.07;47.25;74.42;;
71230;Laerm;57282;52.514;13.458;2022-07-23T13:08:57;59.89;45.31;82.09;;
71230;Laerm;57282;52.514;13.458;2022-07-23T13:11:24;62.32;49.09;73.45;;
71230;Laerm;57282;52.514;13.458;2022-07-23T13:13:51;61.61;45.34;76.32;;
71230;Laerm;57282;52.514;13.458;2022-07-23T13:16:19;65.05;49.60;78.22;;
71230;Laerm;57282;52.514;13.458;2022-07-23T13:18:46;62.88;45.83;77.67;;
71230;Laerm;57282;52.514;13.458;2022-07-23T13:21:12;62.14;48.40;79.84;;
71230;Laerm;57282;52.514;13.458;2022-07-23T13:23:39;62.20;46.89;74.39;;
71230;Laerm;57282;52.514;13.458;2022-07-23T13:26:06;64.60;43.68;77.83;;
71230;Laerm;57282;52.514;13.458;2022-07-23T13:28:32;63.34;48.47;81.24;;
71230;Laerm;57282;52.514;13.458;2022-07-23T13:30:59;62.80;47.99;80.78;;
71230;Laerm;57282;52.514;13.458;2022-07-23T13:33:27;63.13;43.65;81.13;;
71230;Laerm;57282;52.514;13.458;2022-07-23T13:35:54;62.14;43.65;76.77;;
71230;Laerm;57282;52.514;13.458;2022-07-23T13:38:21;61.59;46.10;75.49;;
71230;Laerm;57282;52.514;13.458;2022-07-23T13:40:50;60.47;43.12;77.05;;
71230;Laerm;57282;52.514;13.458;2022-07-23T13:43:20;63.40;46.34;76.19;;